메인 페이지
METAR-TAF:

METAR-TAF

공항 :

샌프란시스코 국제공항

샌프란시스코, 캘리포니아, 미국

위도: 37-37-11N, 경도: 122-21-53W, 고도: 3m

현재 날씨관측

예보는 32분 전, 17:25시(UTC)에 발표되었습니다.
무풍
온도 17°C
습도 72%
기압 1015 hPa
시정: 11.3km
고도 500ft 상공 구름 조금
고도 700ft 상공 구름 보통

METAR: KSFO 251725Z 00000KT 7SM FEW005 SCT007 17/12 A2996 RMK AO2 T01670122 $

시각: 10:57 (17:57 UTC)

예보

예보는 35분 전, 17:22시(UTC)에 발표되었습니다.
예보 대상 시간: 25일 18시부터 26일 24시까지 (UTC)
여러 방향의 바람 4kt
시정: 10km
고도 1000ft 상공 구름 조금
25일 1900시부터 (UTC)
서북서8kt
시정: 10km
맑음
25일 2100시부터 (UTC)
서북서15kt
시정: 10km
맑음
26일 0300시부터 (UTC)
서북서8kt
시정: 10km
고도 1000ft 상공 구름 조금
26일 1200시부터 (UTC)
서북서4kt
시정: 10km
고도 1000ft 상공 구름 많음
26일 1700시부터 (UTC)
여러 방향의 바람 3kt
시정: 10km
고도 1000ft 상공 구름 조금
26일 2000시부터 (UTC)
서북서12kt
시정: 10km
맑음

TAF: KSFO 251722Z 2518/2624 VRB04KT P6SM FEW010 FM251900 29008KT P6SM SKC FM252100 30015KT P6SM SKC FM260300 29008KT P6SM FEW010 FM261200 29004KT P6SM BKN010 FM261700 VRB03KT P6SM FEW010 FM262000 29012KT P6SM SKC

4,000개 이상의 공항 관측 자료 및 예보 (METAR 및 TAF 보고).

지도상에서 검색 가능한 기상관측소가 노란 점과 빨간 점으로 표시되어 있습니다.

기상관측소 명을 보려면 표시 위로 마우스를 이동하세요.

날씨 관측과 예보를 보려면 클릭하세요.

지도 변경 : 확대하려면 엑스 표시가 있는 녹색 버튼, 축소하려면 빼기 표시가 있는 녹색 버튼, 다음 페이지의 지도를 보려면 녹색 화살표를 클릭하세요.


METAR-TAF: